Little Rock Air Force Base
KLRF : now visible

Airfield :











YOU CAN JOIN US ON...

 
LOGIN :

Register | Disclaimer

   EN    FR    IT 

 









Legend :    VFR   Marginal VFR   IFR   Intensive IFR   Very Intensive IFR
Visi :
Ceiling :
>= 8 km
>= 3000ft
5 to 8 km
1000 to 3000 ft
1500m to 5 km
500 to 1000 ft
800 to 1500m
200 to 500 ft
< 800m
< 200 ft
Symbols :   Thunderstorms  Fog  Heavy snow  Heavy precipitations  Wind > 20 kt






- Airport Elevation : 311 ft


KLRF - Little Rock Air Force Base

CURRENT METAR :
  • 062156Z AUTO 16006KT 10SM BKN047 BKN060 25/15 A2998 RMK AO2 SLP154 T02470153 $

EXPIRED METARs :
  • 062056Z AUTO 16005KT 10SM SCT046 SCT055 25/15 A3000 RMK AO2 SLP160 T02470147 57021 $
  • 061956Z AUTO 20003KT 10SM SCT043 24/15 A3002 RMK AO2 SLP167 T02430152 $

TAF TAF KLRF
Valid from the 06 at 15:00 until the 07 at 21:00 UTC


061500Z 0615/0721 VRB02KT 9999 SCT035 SCT050 QNH3008INS
BECMG 0617/0618 19010KT 9999 SCT035 BKN050 QNH2993INS
BECMG 0710/0711 21005KT 8000 SHRA BKN015 QNH2988INS
TEMPO 0712/0718 22012G18KT 6000 TSRA BKN015CB
BECMG 0720/0721 23010G15KT 9999 NSW SCT030 OVC070 QNH2979INS TX24/0621Z TN17/0712Z



MET'MAP, your aeronautical weather chart ! - Copyright ORBIFLY December 2007 - Disclaimer

ORBIFLY MET'MAP TEAM :

Programming & Development : Alexandra Zaïnal
Concept & original design : Baudouin d'Aumeries
Assistance for programming : Marc-Olivier Méhu
Technical & hardware support : Manuel Goepfert

Contact : metmap@orbifly.com




SOURCES & CREDITS :

   NOAA       Earth
Advisory